Time;durP1;ratioP1;P1;durP2;ratioP2;P2;SDS_P1;SDS_P2;PMS_P1;PMS_P2;Temp;Humidity;BMP_temperature;BMP_pressure;BME280_temperature;BME280_humidity;BME280_pressure;Samples;Min_cycle;Max_cycle;Signal;HPM_P1;HPM_P2
2022/05/08 00:01:56;;;;;;;15.93;4.18;;;4.20;99.90;;;;;;4995484;28;20490;-67
2022/05/08 00:04:22;;;;;;;14.20;3.08;;;4.20;99.90;;;;;;4996148;28;20197;-66
2022/05/08 00:06:47;;;;;;;22.60;3.92;;;4.10;99.90;;;;;;4995706;28;20549;-66
2022/05/08 00:09:13;;;;;;;17.60;3.78;;;3.90;99.90;;;;;;4995710;28;20539;-67
2022/05/08 00:11:39;;;;;;;28.42;5.22;;;3.90;99.90;;;;;;4995605;28;20474;-67
2022/05/08 00:14:04;;;;;;;27.38;3.55;;;3.90;99.90;;;;;;4995200;28;20039;-66
2022/05/08 00:16:30;;;;;;;18.58;4.25;;;3.90;99.90;;;;;;4996126;28;20356;-67
2022/05/08 00:18:55;;;;;;;24.02;3.65;;;4.00;99.90;;;;;;4995461;28;20076;-67
2022/05/08 00:21:21;;;;;;;23.60;4.28;;;4.00;99.90;;;;;;4995889;28;20042;-67
2022/05/08 00:23:46;;;;;;;27.48;4.03;;;4.00;99.90;;;;;;4995984;28;20066;-67
2022/05/08 00:26:13;;;;;;;30.55;5.53;;;4.00;99.90;;;;;;4995413;28;20138;-66
2022/05/08 00:28:39;;;;;;;27.85;3.95;;;3.90;99.90;;;;;;4994552;28;20023;-67
2022/05/08 00:31:08;;;;;;;18.77;3.72;;;4.00;99.90;;;;;;4995339;28;20386;-66
2022/05/08 00:33:33;;;;;;;27.65;3.92;;;3.90;99.90;;;;;;4995320;28;20478;-67
2022/05/08 00:35:59;;;;;;;24.45;3.63;;;3.90;99.90;;;;;;4995745;28;20030;-67
2022/05/08 00:38:25;;;;;;;27.38;4.50;;;3.80;99.90;;;;;;4994657;28;20077;-66
2022/05/08 00:40:50;;;;;;;30.05;4.95;;;3.90;99.90;;;;;;4995154;28;20022;-67
2022/05/08 00:43:33;;;;;;;47.00;5.70;;;3.90;99.90;;;;;;4995401;28;20470;-67
2022/05/08 00:46:01;;;;;;;24.77;4.53;;;3.80;99.90;;;;;;4995341;28;20046;-67
2022/05/08 00:48:27;;;;;;;27.77;4.65;;;3.80;99.90;;;;;;4994808;28;20030;-67
2022/05/08 00:50:53;;;;;;;31.17;4.57;;;3.80;99.90;;;;;;4994378;28;20038;-66
2022/05/08 00:53:19;;;;;;;31.73;5.13;;;3.80;99.90;;;;;;4995037;28;20359;-67
2022/05/08 00:55:46;;;;;;;51.60;4.60;;;3.80;99.90;;;;;;4995718;28;20024;-66
2022/05/08 00:58:12;;;;;;;39.70;5.57;;;3.90;99.90;;;;;;4994989;28;20034;-67
2022/05/08 01:00:38;;;;;;;24.40;5.07;;;3.90;99.90;;;;;;4994769;28;20026;-66
2022/05/08 01:03:03;;;;;;;25.13;4.15;;;4.00;99.90;;;;;;4995017;28;20030;-67
2022/05/08 01:05:29;;;;;;;27.48;6.22;;;4.00;99.90;;;;;;4994893;28;20027;-68
2022/05/08 01:07:55;;;;;;;40.20;4.72;;;4.00;99.90;;;;;;4994550;28;20099;-68
2022/05/08 01:10:21;;;;;;;44.90;5.45;;;4.00;99.90;;;;;;4994652;28;20058;-68
2022/05/08 01:12:46;;;;;;;19.08;4.07;;;4.00;99.90;;;;;;4994094;28;20030;-68
2022/05/08 01:15:14;;;;;;;28.73;5.32;;;3.90;99.90;;;;;;4994514;28;20023;-68
2022/05/08 01:17:39;;;;;;;34.50;5.32;;;3.90;99.90;;;;;;4994330;28;20514;-66
2022/05/08 01:20:06;;;;;;;28.95;4.32;;;3.80;99.90;;;;;;4994637;28;20019;-67
2022/05/08 01:22:32;;;;;;;36.60;4.75;;;3.70;99.90;;;;;;4994016;28;20022;-67
2022/05/08 01:25:00;;;;;;;34.20;5.03;;;3.70;99.90;;;;;;4994583;28;20536;-67
2022/05/08 01:27:25;;;;;;;29.60;5.22;;;3.80;99.90;;;;;;4994281;28;20030;-67
2022/05/08 01:29:51;;;;;;;51.28;6.03;;;3.80;99.90;;;;;;4994310;28;20109;-67
2022/05/08 01:32:17;;;;;;;32.65;6.22;;;3.90;99.90;;;;;;4994198;28;20418;-67
2022/05/08 01:34:42;;;;;;;31.83;4.38;;;3.90;99.90;;;;;;4994021;28;20386;-67
2022/05/08 01:37:08;;;;;;;42.63;5.50;;;3.80;99.90;;;;;;4994251;28;20431;-67
2022/05/08 01:39:33;;;;;;;22.65;4.93;;;3.80;99.90;;;;;;4993929;28;20030;-66
2022/05/08 01:41:59;;;;;;;45.65;5.80;;;3.80;99.90;;;;;;4994286;28;20106;-67
2022/05/08 01:44:25;;;;;;;31.52;5.28;;;3.80;99.90;;;;;;4993797;28;20494;-67
2022/05/08 01:48:21;;;;;;;36.00;5.13;;;3.80;99.90;;;;;;4993905;28;20113;-67
2022/05/08 01:49:36;;;;;;;30.38;5.20;;;3.70;99.90;;;;;;4993972;28;20077;-67
2022/05/08 01:52:01;;;;;;;43.13;5.03;;;3.70;99.90;;;;;;4993969;28;20386;-67
2022/05/08 01:54:27;;;;;;;38.30;5.75;;;3.70;99.90;;;;;;4994253;28;20474;-67
2022/05/08 01:56:52;;;;;;;38.85;5.75;;;3.70;99.90;;;;;;4993815;28;20026;-66
2022/05/08 01:59:18;;;;;;;42.17;5.50;;;3.70;99.90;;;;;;4993815;28;20021;-66
2022/05/08 02:01:44;;;;;;;36.25;6.15;;;3.80;99.90;;;;;;4994437;28;20026;-67
2022/05/08 02:04:15;;;;;;;28.77;4.95;;;3.80;99.90;;;;;;4993947;28;20050;-67
2022/05/08 02:06:44;;;;;;;44.10;4.97;;;3.80;99.90;;;;;;4994179;28;20019;-67
2022/05/08 02:09:10;;;;;;;34.40;5.18;;;3.80;99.90;;;;;;4994154;28;20026;-67
2022/05/08 02:11:36;;;;;;;22.42;4.35;;;3.80;99.90;;;;;;4993875;28;20022;-67
2022/05/08 02:14:06;;;;;;;43.97;7.53;;;3.80;99.90;;;;;;4993295;28;20359;-67
2022/05/08 02:16:31;;;;;;;39.90;5.78;;;3.80;99.90;;;;;;4993869;28;20023;-67
2022/05/08 02:18:57;;;;;;;37.90;4.78;;;3.80;99.90;;;;;;4993705;28;20498;-67
2022/05/08 02:21:23;;;;;;;36.40;6.57;;;3.80;99.90;;;;;;4994278;28;20031;-67
2022/05/08 02:23:49;;;;;;;50.85;7.75;;;3.70;99.90;;;;;;4993296;28;20026;-67
2022/05/08 02:26:14;;;;;;;37.78;5.95;;;3.70;99.90;;;;;;4994031;28;20032;-67
2022/05/08 02:28:40;;;;;;;29.95;5.03;;;3.70;99.90;;;;;;4993746;28;20027;-67
2022/05/08 02:31:06;;;;;;;41.95;6.60;;;3.80;99.90;;;;;;4993171;28;20030;-67
2022/05/08 02:33:33;;;;;;;44.60;7.60;;;3.80;99.90;;;;;;4993883;28;20045;-67
2022/05/08 02:35:58;;;;;;;32.85;5.20;;;3.80;99.90;;;;;;4993831;28;20105;-67
2022/05/08 02:38:44;;;;;;;26.50;3.83;;;3.80;99.90;;;;;;4993673;28;20042;-67
2022/05/08 02:41:09;;;;;;;36.55;5.55;;;3.80;99.90;;;;;;4993543;28;20065;-67
2022/05/08 02:43:35;;;;;;;32.72;5.88;;;3.80;99.90;;;;;;4993002;28;20062;-66
2022/05/08 02:46:02;;;;;;;40.55;5.22;;;3.80;99.90;;;;;;4994128;28;20030;-67
2022/05/08 02:48:27;;;;;;;32.13;5.68;;;3.70;99.90;;;;;;4993222;28;20034;-67
2022/05/08 02:50:53;;;;;;;37.65;6.75;;;3.70;99.90;;;;;;4993405;28;20386;-67
2022/05/08 02:53:20;;;;;;;58.78;6.95;;;3.80;99.90;;;;;;4997195;28;20092;-67
2022/05/08 02:58:33;;;;;;;30.80;5.55;;;3.80;99.90;;;;;;4997011;28;20117;-67
2022/05/08 03:00:59;;;;;;;65.43;6.60;;;3.80;99.90;;;;;;4997253;28;20032;-67
2022/05/08 03:03:25;;;;;;;37.38;5.57;;;3.80;99.90;;;;;;4996941;28;20027;-67
2022/05/08 03:05:52;;;;;;;54.85;5.97;;;3.90;99.90;;;;;;4996906;28;20478;-67
2022/05/08 03:08:18;;;;;;;49.03;5.70;;;3.80;99.90;;;;;;4996783;28;20030;-67
2022/05/08 03:13:36;;;;;;;36.00;5.75;;;3.90;99.90;;;;;;4997057;28;20080;-66
2022/05/08 03:16:06;;;;;;;38.72;5.18;;;3.70;99.90;;;;;;4997015;28;20391;-67
2022/05/08 03:18:33;;;;;;;54.92;7.10;;;3.80;99.90;;;;;;4996811;28;20029;-67
2022/05/08 03:20:58;;;;;;;55.70;7.00;;;3.80;99.90;;;;;;4996726;28;20018;-67
2022/05/08 03:23:24;;;;;;;52.50;6.93;;;3.90;99.90;;;;;;4997149;28;20032;-67
2022/05/08 03:25:50;;;;;;;59.00;7.07;;;3.80;99.90;;;;;;4996080;28;20519;-66
2022/05/08 03:28:18;;;;;;;50.92;7.15;;;3.80;99.90;;;;;;4996680;28;20026;-67
2022/05/08 03:30:44;;;;;;;43.97;5.07;;;3.80;99.90;;;;;;4996444;28;20433;-67
2022/05/08 03:33:10;;;;;;;54.38;5.90;;;3.80;99.90;;;;;;4996627;28;20030;-66
2022/05/08 03:35:37;;;;;;;41.78;5.85;;;3.70;99.90;;;;;;4995905;28;20034;-67
2022/05/08 03:38:03;;;;;;;47.15;5.90;;;3.70;99.90;;;;;;4996296;28;20037;-66
2022/05/08 03:40:32;;;;;;;49.97;6.85;;;3.70;99.90;;;;;;4996545;28;20484;-66
2022/05/08 03:42:58;;;;;;;46.63;5.72;;;3.70;99.90;;;;;;4996230;28;20126;-67
2022/05/08 03:45:24;;;;;;;45.13;6.45;;;3.60;99.90;;;;;;4995975;28;20030;-67
2022/05/08 03:47:51;;;;;;;43.13;6.57;;;3.70;99.90;;;;;;4996017;28;20121;-67
2022/05/08 03:50:19;;;;;;;47.40;5.47;;;3.70;99.90;;;;;;4996396;28;20030;-67
2022/05/08 03:52:45;;;;;;;41.85;7.60;;;3.70;99.90;;;;;;4996594;28;20026;-67
2022/05/08 03:55:15;;;;;;;30.33;5.80;;;3.80;99.90;;;;;;4995992;28;20037;-67
2022/05/08 03:57:41;;;;;;;49.45;6.30;;;3.80;99.90;;;;;;4996155;28;20027;-66
2022/05/08 04:00:09;;;;;;;49.97;6.85;;;3.80;99.90;;;;;;4995974;28;20076;-67
2022/05/08 04:02:34;;;;;;;36.03;6.40;;;3.80;99.90;;;;;;4995172;28;20104;-67
2022/05/08 04:05:00;;;;;;;50.85;5.50;;;3.80;99.90;;;;;;4996044;28;20474;-66
2022/05/08 04:07:26;;;;;;;61.72;6.25;;;3.80;99.90;;;;;;4995725;28;20026;-66
2022/05/08 04:09:52;;;;;;;37.35;5.70;;;3.80;99.90;;;;;;4995735;28;20390;-67
2022/05/08 04:12:18;;;;;;;49.47;5.57;;;3.80;99.90;;;;;;4995859;28;20113;-66
2022/05/08 04:14:43;;;;;;;35.25;6.70;;;3.80;99.90;;;;;;4995782;28;20026;-67
2022/05/08 04:17:09;;;;;;;53.45;7.22;;;4.00;99.90;;;;;;4995130;28;20026;-67
2022/05/08 04:19:35;;;;;;;49.83;6.72;;;4.10;99.90;;;;;;4995704;28;20061;-67
2022/05/08 04:24:44;;;;;;;;;;;4.30;99.90;;;;;;4995531;28;20032;-66
2022/05/08 04:27:10;;;;;;;51.22;6.88;;;4.30;99.90;;;;;;4995288;28;19910;-66
2022/05/08 04:29:36;;;;;;;30.50;5.75;;;4.30;99.90;;;;;;4995330;28;20023;-66
2022/05/08 04:32:02;;;;;;;23.83;6.13;;;4.30;99.90;;;;;;4994713;28;20077;-67
2022/05/08 04:34:27;;;;;;;50.05;6.85;;;4.30;99.90;;;;;;4995767;28;20022;-66
2022/05/08 04:36:53;;;;;;;35.85;6.35;;;4.40;99.90;;;;;;4995110;28;20065;-67
2022/05/08 04:39:19;;;;;;;50.95;6.40;;;4.50;99.90;;;;;;4994690;28;20081;-66
2022/05/08 04:41:44;;;;;;;47.88;5.57;;;4.60;99.90;;;;;;4995364;28;20050;-67
2022/05/08 04:44:10;;;;;;;31.88;5.80;;;4.70;99.90;;;;;;4995068;28;20037;-66
2022/05/08 04:46:35;;;;;;;49.28;6.35;;;4.80;99.90;;;;;;4995341;28;20022;-67
2022/05/08 04:49:03;;;;;;;62.53;6.30;;;4.90;99.90;;;;;;4994755;28;20520;-66
2022/05/08 04:51:29;;;;;;;50.88;6.13;;;5.00;99.90;;;;;;4994420;28;20034;-67
2022/05/08 04:53:54;;;;;;;42.08;6.78;;;5.10;99.90;;;;;;4994813;28;20081;-67
2022/05/08 04:56:20;;;;;;;50.30;5.95;;;5.20;99.90;;;;;;4994835;28;20497;-67
2022/05/08 04:58:45;;;;;;;46.85;6.05;;;5.30;99.90;;;;;;4994191;28;20049;-67
2022/05/08 05:01:11;;;;;;;42.33;5.65;;;5.30;99.90;;;;;;4995020;28;20018;-66
2022/05/08 05:03:37;;;;;;;34.40;5.97;;;5.40;99.90;;;;;;4994691;28;20080;-67
2022/05/08 05:06:03;;;;;;;29.85;5.25;;;5.50;99.90;;;;;;4994747;28;20030;-67
2022/05/08 05:08:28;;;;;;;52.55;6.60;;;5.60;99.90;;;;;;4995624;28;20033;-67
2022/05/08 05:10:54;;;;;;;54.50;6.57;;;5.70;99.90;;;;;;4994846;28;20053;-67
2022/05/08 05:13:19;;;;;;;35.05;5.95;;;5.80;99.90;;;;;;4994153;28;20027;-66
2022/05/08 05:15:45;;;;;;;33.30;4.93;;;5.90;99.90;;;;;;4993625;28;20034;-66
2022/05/08 05:18:11;;;;;;;48.13;6.07;;;5.90;99.90;;;;;;4994542;28;20023;-66
2022/05/08 05:20:36;;;;;;;64.53;7.72;;;6.10;99.90;;;;;;4994003;28;20025;-67
2022/05/08 05:23:03;;;;;;;23.95;5.88;;;6.10;99.90;;;;;;4994401;28;20030;-67
2022/05/08 05:25:29;;;;;;;38.58;5.47;;;6.30;99.90;;;;;;4994404;28;20030;-66
2022/05/08 05:27:55;;;;;;;35.05;5.13;;;6.40;99.90;;;;;;4993767;28;20054;-66
2022/05/08 05:30:20;;;;;;;35.25;5.75;;;6.50;99.90;;;;;;4994373;28;20128;-66
2022/05/08 05:32:46;;;;;;;42.60;8.38;;;6.70;99.90;;;;;;4994485;28;20167;-67
2022/05/08 05:35:12;;;;;;;46.95;6.75;;;6.80;99.90;;;;;;4994733;28;20019;-66
2022/05/08 05:37:39;;;;;;;52.40;7.57;;;7.00;99.90;;;;;;4993650;28;20406;-66
2022/05/08 05:40:05;;;;;;;37.70;5.00;;;7.20;99.90;;;;;;4994176;28;20016;-66
2022/05/08 05:42:32;;;;;;;39.10;5.43;;;7.30;99.90;;;;;;4995184;28;20524;-66
2022/05/08 05:44:57;;;;;;;37.97;5.93;;;7.40;99.90;;;;;;4993769;28;20030;-66
2022/05/08 05:50:08;;;;;;;;;;;7.70;99.90;;;;;;4976335;28;20042;-67
2022/05/08 05:52:36;;;;;;;20.77;4.22;;;7.80;99.90;;;;;;4974119;28;19917;-67
2022/05/08 05:55:06;;;;;;;40.53;5.53;;;8.00;99.90;;;;;;4974750;28;20034;-67
2022/05/08 05:57:33;;;;;;;29.35;5.60;;;8.20;99.90;;;;;;4974886;28;20493;-67
2022/05/08 05:59:58;;;;;;;41.42;5.32;;;8.40;99.90;;;;;;4974818;28;20483;-67
2022/05/08 06:02:24;;;;;;;20.98;4.65;;;8.60;99.90;;;;;;4974095;28;20050;-67
2022/05/08 06:04:50;;;;;;;40.72;5.75;;;8.80;99.90;;;;;;4974820;28;20066;-67
2022/05/08 06:07:15;;;;;;;40.40;5.25;;;9.00;99.90;;;;;;4974411;28;20058;-67
2022/05/08 06:09:41;;;;;;;33.08;5.82;;;9.10;99.90;;;;;;4974684;28;20038;-67
2022/05/08 06:12:07;;;;;;;35.67;4.53;;;9.10;99.90;;;;;;4973900;28;20042;-67
2022/05/08 06:14:32;;;;;;;37.88;5.03;;;9.20;99.90;;;;;;4974584;28;20031;-67
2022/05/08 06:16:58;;;;;;;48.63;5.35;;;9.30;99.90;;;;;;4974437;28;20050;-67
2022/05/08 06:19:23;;;;;;;21.33;5.32;;;9.40;99.90;;;;;;4974481;28;20453;-67
2022/05/08 06:21:49;;;;;;;31.10;4.88;;;9.50;99.90;;;;;;4974453;28;20058;-67
2022/05/08 06:24:15;;;;;;;33.70;5.60;;;9.60;99.90;;;;;;4974035;28;20545;-67
2022/05/08 06:26:41;;;;;;;42.85;4.13;;;9.60;99.90;;;;;;4976212;28;20027;-67
2022/05/08 06:29:06;;;;;;;38.03;5.75;;;9.80;99.90;;;;;;4978410;28;20023;-67
2022/05/08 06:31:32;;;;;;;32.75;5.10;;;9.90;99.90;;;;;;4978225;28;20514;-67
2022/05/08 06:33:57;;;;;;;28.95;5.07;;;9.80;99.90;;;;;;4992471;28;20563;-67
2022/05/08 06:36:24;;;;;;;26.90;5.07;;;9.80;99.90;;;;;;4978179;28;20027;-67
2022/05/08 06:38:49;;;;;;;30.02;5.95;;;9.80;99.90;;;;;;4977929;28;20023;-67
2022/05/08 06:41:15;;;;;;;28.40;5.00;;;9.90;99.90;;;;;;4978199;28;20093;-67
2022/05/08 06:43:41;;;;;;;35.35;4.78;;;10.00;99.90;;;;;;4978082;28;20037;-67
2022/05/08 06:46:08;;;;;;;31.40;4.75;;;10.10;99.90;;;;;;4977462;28;20078;-67
2022/05/08 06:48:34;;;;;;;43.47;5.55;;;10.20;99.90;;;;;;4977824;28;20042;-67
2022/05/08 06:51:00;;;;;;;34.03;5.90;;;10.30;99.90;;;;;;4977880;28;20159;-67
2022/05/08 06:53:26;;;;;;;35.40;5.97;;;10.50;99.90;;;;;;4978128;28;20034;-67
2022/05/08 06:55:52;;;;;;;42.70;6.70;;;10.70;99.90;;;;;;4977801;28;20030;-67
2022/05/08 06:58:20;;;;;;;33.22;5.35;;;10.80;99.90;;;;;;4977671;28;20030;-67
2022/05/08 07:03:50;;;;;;;30.02;4.90;;;11.00;99.90;;;;;;4956150;29;20178;-67
2022/05/08 07:06:16;;;;;;;45.00;5.97;;;11.10;99.90;;;;;;4956329;29;20550;-67
2022/05/08 07:08:41;;;;;;;35.17;5.53;;;11.20;99.90;;;;;;4965942;28;20027;-67
2022/05/08 07:11:07;;;;;;;31.70;6.05;;;11.20;99.90;;;;;;4977991;28;20022;-67
2022/05/08 07:13:33;;;;;;;22.63;4.85;;;11.30;99.90;;;;;;4977548;28;20033;-67
2022/05/08 07:15:59;;;;;;;24.08;4.82;;;11.30;99.90;;;;;;4977099;28;20027;-67
2022/05/08 07:18:24;;;;;;;34.15;5.85;;;11.50;99.90;;;;;;4977372;28;20493;-67
2022/05/08 07:20:50;;;;;;;25.88;4.88;;;11.60;99.90;;;;;;4977250;28;20502;-67
2022/05/08 07:23:16;;;;;;;30.33;3.95;;;11.60;99.90;;;;;;4977794;28;20042;-67
2022/05/08 07:25:41;;;;;;;24.88;5.63;;;11.80;99.90;;;;;;4976798;28;20019;-67
2022/05/08 07:28:07;;;;;;;26.13;3.78;;;11.80;99.90;;;;;;4977286;28;20031;-67
2022/05/08 07:30:32;;;;;;;32.60;4.45;;;11.90;99.90;;;;;;4977193;28;20083;-68
2022/05/08 07:33:00;;;;;;;31.02;4.22;;;12.00;99.90;;;;;;4977267;28;20027;-68
2022/05/08 07:38:10;;;;;;;;;;;12.30;99.90;;;;;;4976369;28;20045;-68
2022/05/08 07:40:35;;;;;;;23.90;4.43;;;12.30;99.90;;;;;;4977158;28;19914;-68
2022/05/08 07:43:01;;;;;;;20.52;4.07;;;12.40;99.90;;;;;;4976954;28;20471;-68
2022/05/08 07:45:28;;;;;;;27.88;4.30;;;12.60;99.90;;;;;;4976329;28;20097;-67
2022/05/08 07:47:54;;;;;;;28.35;4.90;;;12.70;99.90;;;;;;4976871;28;20118;-67
2022/05/08 07:50:20;;;;;;;23.52;4.18;;;12.70;99.90;;;;;;4977319;28;20378;-67
2022/05/08 07:52:46;;;;;;;25.77;4.90;;;12.80;99.90;;;;;;4977079;28;20023;-67
2022/05/08 07:55:11;;;;;;;32.10;4.60;;;13.00;99.90;;;;;;4976676;28;20050;-67
2022/05/08 07:57:37;;;;;;;29.73;5.70;;;12.90;99.90;;;;;;4976156;28;20031;-67
2022/05/08 08:00:04;;;;;;;20.73;4.47;;;13.10;99.90;;;;;;4976855;28;20467;-67
2022/05/08 08:02:30;;;;;;;22.85;4.13;;;13.10;99.90;;;;;;4976642;28;20034;-67
2022/05/08 08:04:55;;;;;;;29.50;5.65;;;13.20;99.90;;;;;;4976951;28;20038;-67
2022/05/08 08:07:21;;;;;;;24.77;4.88;;;13.40;99.90;;;;;;4976969;28;20538;-67
2022/05/08 08:09:46;;;;;;;18.10;3.17;;;13.40;99.90;;;;;;4976837;28;20479;-67
2022/05/08 08:12:12;;;;;;;16.52;3.70;;;13.60;99.90;;;;;;4976042;28;20478;-67
2022/05/08 08:14:37;;;;;;;25.02;3.85;;;13.70;99.90;;;;;;4976250;28;20019;-67
2022/05/08 08:17:03;;;;;;;23.80;3.88;;;13.80;99.90;;;;;;4976171;28;20022;-67
2022/05/08 08:19:30;;;;;;;18.83;3.95;;;14.00;99.90;;;;;;4976391;28;20486;-67
2022/05/08 08:21:56;;;;;;;20.80;3.70;;;13.90;99.90;;;;;;4975595;28;20450;-67
2022/05/08 08:24:21;;;;;;;13.15;3.38;;;14.10;99.90;;;;;;4976090;28;20027;-67
2022/05/08 08:26:47;;;;;;;19.50;4.22;;;14.20;99.90;;;;;;4976229;28;20054;-67
2022/05/08 08:29:14;;;;;;;18.85;4.15;;;14.30;99.90;;;;;;4975902;28;20387;-67
2022/05/08 08:31:40;;;;;;;14.93;3.30;;;14.10;99.90;;;;;;4975935;28;20030;-68
2022/05/08 08:34:05;;;;;;;10.25;2.80;;;14.10;99.90;;;;;;4976130;28;20536;-68
2022/05/08 08:36:31;;;;;;;14.45;3.90;;;14.10;99.90;;;;;;4976307;28;20094;-70
2022/05/08 08:38:57;;;;;;;20.63;4.13;;;14.30;99.90;;;;;;4975791;28;20122;-72
2022/05/08 08:41:27;;;;;;;35.75;3.72;;;14.40;99.90;;;;;;4976567;28;20019;-73
2022/05/08 08:49:25;;;;;;;17.83;3.17;;;14.50;99.90;;;;;;4975619;28;20050;-68
2022/05/08 08:51:52;;;;;;;13.40;3.03;;;15.00;99.90;;;;;;4975823;28;20031;-68
2022/05/08 08:54:19;;;;;;;13.90;2.78;;;15.20;99.90;;;;;;4975669;28;20027;-68
2022/05/08 08:56:45;;;;;;;21.23;2.72;;;15.00;99.90;;;;;;4975670;28;20019;-68
2022/05/08 08:59:10;;;;;;;18.48;3.17;;;15.20;99.90;;;;;;4974847;28;20501;-68
2022/05/08 09:01:43;;;;;;;14.27;2.83;;;15.30;99.90;;;;;;4975678;28;20419;-68
2022/05/08 09:04:10;;;;;;;21.77;3.08;;;15.40;99.90;;;;;;4975397;28;20030;-68
2022/05/08 09:06:44;;;;;;;19.88;3.90;;;15.50;99.90;;;;;;4974805;28;20026;-68
2022/05/08 09:09:23;;;;;;;13.88;3.50;;;15.40;99.90;;;;;;4975177;28;20376;-68
2022/05/08 09:11:49;;;;;;;15.82;2.97;;;15.40;99.90;;;;;;4975200;28;20483;-68
2022/05/08 09:14:34;;;;;;;13.75;2.88;;;15.60;99.90;;;;;;4975054;28;20034;-68
2022/05/08 09:17:02;;;;;;;15.35;3.35;;;15.90;99.90;;;;;;4976377;28;20035;-68
2022/05/08 09:19:39;;;;;;;11.95;2.85;;;16.20;99.90;;;;;;4974799;28;20106;-68
2022/05/08 09:22:11;;;;;;;12.05;2.22;;;16.30;99.90;;;;;;4975085;28;20110;-68
2022/05/08 09:24:53;;;;;;;14.52;2.85;;;16.40;99.90;;;;;;4975294;28;20055;-68
2022/05/08 09:27:19;;;;;;;22.85;3.35;;;16.50;99.90;;;;;;4975452;28;20029;-68
2022/05/08 09:29:45;;;;;;;14.65;3.25;;;16.40;99.90;;;;;;4975154;28;20019;-68
2022/05/08 09:32:35;;;;;;;17.00;3.53;;;16.40;99.90;;;;;;4974527;28;20023;-68
2022/05/08 09:35:02;;;;;;;7.75;2.40;;;16.50;99.90;;;;;;4975551;28;20023;-68
2022/05/08 09:37:27;;;;;;;15.02;3.15;;;16.60;99.90;;;;;;4974959;28;20046;-69
2022/05/08 09:40:14;;;;;;;9.15;2.55;;;16.70;99.90;;;;;;4975412;28;20050;-68
2022/05/08 09:42:39;;;;;;;15.50;2.30;;;16.90;99.90;;;;;;4974561;28;20157;-68
2022/05/08 09:45:07;;;;;;;16.63;2.60;;;17.20;99.90;;;;;;4974867;28;20058;-69
2022/05/08 09:48:03;;;;;;;15.90;3.05;;;17.40;99.90;;;;;;4975010;28;20041;-69
2022/05/08 09:50:29;;;;;;;16.17;2.78;;;17.30;99.90;;;;;;4966477;28;20041;-69
2022/05/08 09:52:55;;;;;;;10.38;2.50;;;17.30;99.90;;;;;;4975008;28;20144;-68
2022/05/08 09:55:21;;;;;;;12.15;2.60;;;17.50;99.90;;;;;;4974341;28;20031;-68
2022/05/08 09:57:46;;;;;;;18.23;3.03;;;17.60;99.90;;;;;;4974864;28;20050;-69
2022/05/08 10:00:12;;;;;;;11.25;2.90;;;17.50;99.90;;;;;;4974985;28;20058;-68
2022/05/08 10:02:38;;;;;;;18.75;3.08;;;17.50;99.90;;;;;;4980182;28;20081;-68
2022/05/08 10:05:04;;;;;;;12.00;3.03;;;17.40;99.90;;;;;;4981114;28;20027;-68
2022/05/08 10:07:32;;;;;;;10.98;2.83;;;17.30;99.90;;;;;;4981035;28;20042;-68
2022/05/08 10:15:32;;;;;;;13.18;2.50;;;17.80;99.90;;;;;;4950674;28;20085;-68
2022/05/08 10:18:21;;;;;;;11.75;2.42;;;18.10;99.90;;;;;;4980951;28;20023;-69
2022/05/08 10:21:12;;;;;;;10.50;2.53;;;18.20;99.90;;;;;;4982100;28;20424;-69
2022/05/08 10:23:45;;;;;;;13.18;2.70;;;18.50;99.90;;;;;;4981116;28;20029;-69
2022/05/08 10:26:24;;;;;;;13.60;3.08;;;18.40;99.90;;;;;;4980852;28;20050;-69
2022/05/08 10:29:02;;;;;;;21.67;3.03;;;18.40;99.90;;;;;;4980978;28;20023;-68
2022/05/08 10:31:43;;;;;;;12.35;3.70;;;18.50;99.90;;;;;;4981266;28;20485;-68
2022/05/08 10:34:12;;;;;;;14.15;3.33;;;18.60;99.90;;;;;;4981156;28;20061;-72
2022/05/08 10:36:39;;;;;;;11.52;2.25;;;18.40;99.90;;;;;;4980767;28;20029;-72
2022/05/08 10:39:38;;;;;;;11.18;2.78;;;18.20;99.90;;;;;;4980926;28;20023;-73
2022/05/08 10:42:04;;;;;;;23.20;2.90;;;18.40;99.90;;;;;;4981010;28;20106;-72
2022/05/08 10:44:37;;;;;;;17.48;2.55;;;18.60;99.90;;;;;;4980969;28;20034;-72
2022/05/08 10:47:41;;;;;;;11.20;2.70;;;19.50;99.90;;;;;;4980552;28;20022;-72
2022/05/08 10:50:11;;;;;;;18.40;3.10;;;19.20;99.90;;;;;;4978797;28;20499;-72
2022/05/08 10:52:41;;;;;;;11.27;2.55;;;19.30;99.90;;;;;;4981314;28;20062;-72
2022/05/08 10:55:12;;;;;;;15.65;3.13;;;19.30;97.00;;;;;;4980842;28;20106;-72
2022/05/08 10:57:39;;;;;;;16.60;3.63;;;19.10;99.90;;;;;;4980512;28;20151;-72
2022/05/08 11:00:11;;;;;;;7.38;2.17;;;19.30;99.90;;;;;;4981044;28;20368;-72
2022/05/08 11:02:45;;;;;;;9.32;2.55;;;19.60;99.90;;;;;;4980941;28;20463;-72
2022/05/08 11:05:13;;;;;;;13.85;3.85;;;19.60;96.60;;;;;;4980694;28;20022;-72
2022/05/08 11:07:46;;;;;;;7.93;2.83;;;19.50;99.20;;;;;;4980612;28;20030;-72
2022/05/08 11:10:18;;;;;;;12.93;2.50;;;19.50;98.50;;;;;;4980327;28;20110;-72
2022/05/08 11:13:04;;;;;;;9.10;2.40;;;19.90;99.90;;;;;;4979307;28;20038;-71
2022/05/08 11:15:32;;;;;;;12.02;2.95;;;20.10;96.40;;;;;;4977808;28;20023;-72
2022/05/08 11:18:07;;;;;;;10.90;2.75;;;20.10;94.80;;;;;;4977436;28;20018;-69
2022/05/08 11:20:36;;;;;;;8.82;2.22;;;20.10;95.90;;;;;;4977297;28;20031;-69
2022/05/08 11:23:05;;;;;;;10.63;3.17;;;20.00;97.60;;;;;;4977711;28;20034;-69
2022/05/08 11:25:32;;;;;;;22.10;3.72;;;20.30;99.00;;;;;;4977693;28;20526;-69
2022/05/08 11:27:58;;;;;;;9.93;2.35;;;20.50;95.60;;;;;;4977320;28;20026;-69
2022/05/08 11:30:42;;;;;;;11.65;2.60;;;20.40;98.70;;;;;;4977248;28;20390;-68
2022/05/08 11:36:07;;;;;;;15.52;3.40;;;20.20;95.80;;;;;;4977543;28;20037;-69
2022/05/08 11:38:38;;;;;;;11.45;3.03;;;20.00;94.00;;;;;;4977368;28;20426;-69
2022/05/08 11:41:05;;;;;;;10.68;2.83;;;19.70;98.20;;;;;;4977404;28;20023;-69
2022/05/08 11:43:39;;;;;;;18.65;3.28;;;19.80;97.00;;;;;;4976980;28;20442;-69
2022/05/08 11:46:06;;;;;;;12.25;2.45;;;20.40;97.10;;;;;;4977052;28;20023;-69
2022/05/08 11:48:40;;;;;;;16.65;3.45;;;20.70;98.40;;;;;;4977005;28;20038;-68
2022/05/08 11:51:21;;;;;;;15.88;3.08;;;21.10;96.90;;;;;;4976850;28;20041;-68
2022/05/08 11:53:51;;;;;;;17.98;3.75;;;21.50;94.90;;;;;;4977084;28;20035;-68
2022/05/08 11:56:30;;;;;;;11.95;3.15;;;21.90;92.20;;;;;;4977324;28;20513;-68
2022/05/08 11:58:57;;;;;;;8.50;3.00;;;21.50;96.50;;;;;;4976779;28;20027;-68
2022/05/08 12:01:33;;;;;;;20.52;4.50;;;21.90;94.70;;;;;;4976236;28;20027;-68
2022/05/08 12:04:26;;;;;;;11.70;3.00;;;21.60;93.00;;;;;;4976761;28;20493;-68
2022/05/08 12:07:05;;;;;;;14.48;2.65;;;21.40;92.10;;;;;;4971530;28;20408;-68
2022/05/08 12:09:51;;;;;;;17.60;3.05;;;21.60;92.80;;;;;;4976448;28;20383;-68
2022/05/08 12:12:27;;;;;;;16.83;3.20;;;22.00;93.80;;;;;;4975754;28;20177;-68
2022/05/08 12:15:13;;;;;;;14.77;2.83;;;22.30;93.10;;;;;;4976827;28;20475;-68
2022/05/08 12:17:42;;;;;;;9.25;2.67;;;22.90;93.20;;;;;;4976284;28;20037;-68
2022/05/08 12:20:14;;;;;;;13.82;3.05;;;22.80;92.50;;;;;;4976899;28;20038;-68
2022/05/08 12:22:41;;;;;;;14.40;3.17;;;23.10;86.80;;;;;;4976304;28;20106;-68
2022/05/08 12:25:07;;;;;;;13.77;2.60;;;23.40;86.10;;;;;;4975133;28;20038;-68
2022/05/08 12:27:34;;;;;;;8.27;3.03;;;22.50;87.30;;;;;;4976598;28;20031;-68
2022/05/08 12:30:00;;;;;;;17.05;3.17;;;22.00;87.30;;;;;;4976428;28;20027;-68
2022/05/08 12:32:26;;;;;;;17.75;2.60;;;21.90;82.50;;;;;;4976205;28;20038;-68
2022/05/08 12:34:57;;;;;;;10.52;2.65;;;21.40;86.10;;;;;;4976312;28;20027;-68
2022/05/08 12:37:23;;;;;;;12.43;2.72;;;21.70;79.20;;;;;;4975966;28;20015;-68
2022/05/08 12:39:49;;;;;;;12.05;2.38;;;22.10;83.60;;;;;;4975508;28;20030;-68
2022/05/08 12:42:15;;;;;;;12.50;3.58;;;22.60;85.90;;;;;;4976230;28;20022;-68
2022/05/08 12:44:43;;;;;;;9.57;2.78;;;22.90;85.20;;;;;;4975806;28;20110;-68
2022/05/08 12:47:10;;;;;;;13.43;2.45;;;23.70;84.10;;;;;;4975370;28;20472;-68
2022/05/08 12:49:37;;;;;;;11.85;2.50;;;23.50;77.60;;;;;;4975667;28;20031;-68
2022/05/08 12:52:05;;;;;;;11.95;3.50;;;23.30;76.50;;;;;;4976072;28;20023;-68
2022/05/08 12:54:30;;;;;;;15.52;3.17;;;23.50;80.80;;;;;;4975720;28;20579;-68
2022/05/08 12:56:56;;;;;;;12.70;3.50;;;23.60;81.20;;;;;;4975730;28;20062;-68
2022/05/08 13:02:06;;;;;;;12.65;2.55;;;23.10;79.00;;;;;;4975597;28;20041;-68
2022/05/08 13:04:32;;;;;;;16.77;2.55;;;23.80;80.70;;;;;;4975608;28;20026;-68
2022/05/08 13:06:57;;;;;;;9.45;2.47;;;23.80;79.90;;;;;;4975999;28;20460;-68
2022/05/08 13:09:24;;;;;;;12.48;2.80;;;24.10;75.80;;;;;;4975325;28;20035;-67
2022/05/08 13:11:49;;;;;;;16.75;3.03;;;24.00;78.90;;;;;;4975143;28;20081;-68
2022/05/08 13:14:15;;;;;;;22.77;3.05;;;24.20;82.10;;;;;;4975267;28;20074;-68
2022/05/08 13:16:41;;;;;;;18.15;2.42;;;24.50;76.90;;;;;;4975333;28;20094;-68
2022/05/08 13:19:09;;;;;;;11.43;2.55;;;24.20;73.50;;;;;;4975208;28;20030;-68
2022/05/08 13:21:37;;;;;;;16.17;3.22;;;24.60;78.70;;;;;;4975533;28;20030;-68